Share

Mount Vernon, AL

Chalet Ridge (KALBAYMI2) Elev 276 ft | 30.89 °N, 87.74 °W | Change Station
Active Advisory: Flood WarningFlash Flood Watch

Current weather conditions updated 1 second ago

Overcast
Overcast
57.7 °F
Feels Like 57.7 °F
N
3.8
Wind Variable Wind from East
Gusts 9.1 mph
Sunrise 6:20 AM
Sunset 7:22 PM
Moon Waning Gibbous

Today is forecast to be Much Cooler than yesterday. Light rain.

Pressure 30.05 in
Visibility 10.0 miles
Clouds Overcast 900 ft
Dew Point 58 °F
Humidity 99%
Rainfall 0.00 in
Snow Depth Not available.
UV 3 out of 16
Pollen .90 out of 12
Ozone Good
Flu Activity Sporadic
METAR KCQF 181615Z AUTO 03016KT 10SM OVC009 16/14 A3005 RMK AO2

More Conditions Fewer Conditions

Pressure 30.05 in
Visibility 10.0 miles
Clouds Overcast 900 ft
Dew Point 58 °F
Humidity 99%
Rainfall 0.00 in
Snow Depth Not available.
UV 3 out of 16
Pollen .90 out of 12
Ozone Good
Flu Activity Sporadic
METAR KCQF 181615Z AUTO 03016KT 10SM OVC009 16/14 A3005 RMK AO2

More Conditions Fewer Conditions

10-Day Forecast

Almanac

Astronomy

Apr. 18, 2014 Rise Set
Actual Time 6:20 AM CDT 7:22 PM CDT
Civil Twilight 5:56 AM CDT 7:47 PM CDT
Nautical Twilight 5:26 AM CDT 8:17 PM CDT
Astronomical Twilight 4:56 AM CDT 8:47 PM CDT
Moon 10:58 PM CDT 8:51 AM CDT
Length of Visible Light 13h 51m
Length of Day
13h 01m
Tomorrow will be 1m 46s longer.
Waning Gibbous, 87% of the Moon is Illuminated
Today
Waning Gibbous
Apr 22
Last Quarter
Apr 29
New
May 6
First Quarter
May 14
Full

Today's Extremes

State Highs State Lows

Community

  • What's for Lunch?
    What's for Lunch?
  • SUNRISE THROUGH THE TREES.
    SUNRISE THROUGH THE TREES.
  • Dog Wood Blossoms
    Dog Wood Blossoms
  • Morning Light
    Morning Light
  • New Day
    New Day

WunderPhotos

Upload Photos

1,702,397 photos uploaded!

Nearby

Air Quality

  Air Quality AQ Index Pollutant
Yesterday Good
OZONE
Current Good
OZONE
Friday Good
OZONE

Snow Depth

Station Depth Elevation
No new snow has been reported.

Coastal Water Temperatures

Place Temperature
Mobile State Docks, AL 62.1 °F
Coast Guard Sector Mobile, AL 63.0 °F

Earthquake Activity

City Distance Mag. Time & Date
No recent earthquake activity has been reported nearby.
Minimum magnitude displayed is 2.5.

Nearby Weather Stations

Station Location Temp. Dew Point Humidity Wind Precip. Elev Updated Type
Chalet Ridge, Bay Minette, AL 57.7 °F 58 °F 99% East  at  3.8 mph 0.00 in / hr 276 ft 11:24 AM CDT Rapid Fire
The Legends At Magnolia Grove, Mobile, AL 59.5 °F 59 °F 97% NW  at  1.0 mph 0.04 in / hr 207 ft 11:24 AM CDT Rapid Fire

Show More Stations Show Fewer Stations

What do you think?

We're not finished. Please let us know what you like, what you don't like, and what you are still missing.